Time;durP1;ratioP1;P1;durP2;ratioP2;P2;SDS_P1;SDS_P2;PMS_P1;PMS_P2;Temp;Humidity;BMP_temperature;BMP_pressure;BME280_temperature;BME280_humidity;BME280_pressure;Samples;Min_cycle;Max_cycle;Signal;HPM_P1;HPM_P2
2023/08/17 00:01:26;;;;;;;3.03;2.78;;;26.40;72.00;27.10;100974.00;;;;5009992;28;20203;-56
2023/08/17 00:03:52;;;;;;;3.17;2.88;;;26.40;72.10;27.10;100971.00;;;;5009598;28;20190;-56
2023/08/17 00:06:18;;;;;;;3.03;2.80;;;26.40;72.10;27.10;100956.00;;;;5009640;28;20176;-57
2023/08/17 00:08:44;;;;;;;2.90;2.70;;;26.40;72.10;27.10;100972.00;;;;5009540;28;20183;-56
2023/08/17 00:11:10;;;;;;;3.08;2.78;;;26.40;72.10;27.10;100983.00;;;;5008277;28;20175;-57
2023/08/17 00:13:36;;;;;;;3.00;2.55;;;26.40;72.10;27.00;100994.00;;;;5009563;28;20202;-58
2023/08/17 00:16:01;;;;;;;2.95;2.65;;;26.40;72.10;27.00;100981.00;;;;5008086;28;20737;-57
2023/08/17 00:18:27;;;;;;;2.70;2.50;;;26.30;72.10;27.00;100992.00;;;;5009403;28;20666;-57
2023/08/17 00:20:53;;;;;;;2.97;2.70;;;26.30;72.10;27.00;100985.00;;;;5009226;28;20321;-58
2023/08/17 00:23:20;;;;;;;2.92;2.63;;;26.30;72.10;27.00;100941.00;;;;5009552;28;20204;-57
2023/08/17 00:25:47;;;;;;;3.13;2.83;;;26.30;72.20;27.00;100998.00;;;;5009447;28;20219;-58
2023/08/17 00:28:13;;;;;;;2.83;2.60;;;26.30;72.20;26.80;100989.00;;;;5009424;28;20179;-57
2023/08/17 00:30:39;;;;;;;2.80;2.60;;;26.30;72.20;27.00;100990.00;;;;5008992;28;20230;-57
2023/08/17 00:33:05;;;;;;;2.70;2.50;;;26.30;72.20;26.90;100984.00;;;;5009350;28;20199;-57
2023/08/17 00:35:32;;;;;;;2.60;2.40;;;26.30;72.20;26.90;100988.00;;;;5008105;28;20183;-57
2023/08/17 00:37:59;;;;;;;2.60;2.40;;;26.30;72.20;26.90;100983.00;;;;5009295;28;20188;-57
2023/08/17 00:40:24;;;;;;;2.70;2.50;;;26.30;72.20;26.90;100987.00;;;;5007631;28;20210;-57
2023/08/17 00:42:50;;;;;;;3.75;3.13;;;26.30;71.80;26.90;100984.00;;;;5009900;28;20195;-57
2023/08/17 00:45:16;;;;;;;3.45;3.15;;;26.30;70.70;26.90;100986.00;;;;5008761;28;20203;-57
2023/08/17 00:47:42;;;;;;;3.92;3.17;;;26.20;70.30;26.80;100990.00;;;;5008919;28;20182;-57
2023/08/17 00:50:07;;;;;;;2.92;2.72;;;26.20;70.10;26.80;100987.00;;;;5008555;28;20251;-56
2023/08/17 00:52:33;;;;;;;3.17;2.83;;;26.20;70.00;26.80;100985.00;;;;5008637;28;20203;-57
2023/08/17 00:54:59;;;;;;;3.22;2.92;;;26.20;70.00;26.80;100965.00;;;;5008610;28;20291;-58
2023/08/17 00:57:25;;;;;;;3.20;2.90;;;26.20;69.80;26.70;100977.00;;;;4975106;28;20183;-58
2023/08/17 00:59:51;;;;;;;2.95;2.75;;;26.20;69.80;26.70;100990.00;;;;5007045;28;20228;-57
2023/08/17 01:02:16;;;;;;;3.35;2.80;;;26.10;69.60;26.70;100986.00;;;;5000537;28;20270;-57
2023/08/17 01:04:42;;;;;;;3.50;3.10;;;26.10;69.70;26.70;100990.00;;;;4991019;28;20717;-58
2023/08/17 01:07:08;;;;;;;3.25;3.03;;;26.10;69.60;26.70;100985.00;;;;5008662;28;20222;-57
2023/08/17 01:09:34;;;;;;;3.30;3.00;;;26.10;69.40;26.60;100981.00;;;;5008881;28;20503;-57
2023/08/17 01:12:05;;;;;;;3.33;3.03;;;26.10;69.40;26.60;100982.00;;;;4990905;28;20207;-58
2023/08/17 01:14:56;;;;;;;3.15;2.80;;;26.00;69.30;26.60;100984.00;;;;5007629;28;20875;-61
2023/08/17 01:17:29;;;;;;;4.22;2.80;;;26.00;69.30;26.60;100976.00;;;;4977934;28;20261;-57
2023/08/17 01:19:55;;;;;;;3.55;2.80;;;26.00;69.50;26.60;100971.00;;;;4977705;28;20183;-57
2023/08/17 01:22:22;;;;;;;3.83;2.97;;;26.00;69.40;26.60;100976.00;;;;4993530;28;20895;-57
2023/08/17 01:24:48;;;;;;;5.43;3.00;;;26.00;69.40;26.50;100968.00;;;;5008318;28;20214;-57
2023/08/17 01:27:13;;;;;;;3.97;3.30;;;26.00;69.30;26.50;100966.00;;;;5008402;28;20180;-56
2023/08/17 01:29:39;;;;;;;3.83;3.13;;;26.00;69.10;26.50;100967.00;;;;5008408;28;20175;-56
2023/08/17 01:32:26;;;;;;;3.72;3.40;;;26.00;69.00;26.50;100971.00;;;;5006826;28;20199;-55
2023/08/17 01:34:58;;;;;;;3.45;3.15;;;25.90;69.10;26.40;100976.00;;;;5008425;28;20167;-58
2023/08/17 01:37:26;;;;;;;3.40;3.10;;;25.90;69.10;26.40;100971.00;;;;5009549;28;20188;-57
2023/08/17 01:39:52;;;;;;;4.03;3.63;;;25.80;69.00;26.40;100966.00;;;;5006732;28;20210;-58
2023/08/17 01:42:18;;;;;;;4.30;3.90;;;25.80;68.80;26.40;100976.00;;;;5006999;28;20227;-56
2023/08/17 01:44:44;;;;;;;3.70;3.40;;;25.80;68.70;26.30;100973.00;;;;5008069;28;20729;-57
2023/08/17 01:47:11;;;;;;;3.72;3.40;;;25.80;68.60;26.30;100980.00;;;;5007010;28;20657;-57
2023/08/17 01:49:37;;;;;;;3.97;3.67;;;25.80;68.70;26.30;100976.00;;;;5008083;28;20496;-56
2023/08/17 01:52:02;;;;;;;4.28;3.63;;;25.70;68.60;26.30;100970.00;;;;5008126;28;20206;-57
2023/08/17 01:54:28;;;;;;;3.60;3.30;;;25.70;68.50;26.20;100978.00;;;;5008591;28;20776;-57
2023/08/17 01:56:54;;;;;;;4.00;3.08;;;25.70;68.50;26.20;100965.00;;;;5008134;28;20180;-57
2023/08/17 01:59:20;;;;;;;3.30;3.00;;;25.70;68.50;26.20;100963.00;;;;5007940;28;20268;-57
2023/08/17 02:01:45;;;;;;;3.30;3.00;;;25.70;68.60;26.20;100968.00;;;;5007241;28;20207;-57
2023/08/17 02:04:11;;;;;;;3.38;3.08;;;25.70;68.70;26.20;100967.00;;;;5007841;28;20215;-57
2023/08/17 02:06:37;;;;;;;3.30;3.00;;;25.60;68.70;26.20;100961.00;;;;5007255;28;20182;-57
2023/08/17 02:09:02;;;;;;;5.13;3.22;;;25.60;68.60;26.10;100969.00;;;;5008014;28;20230;-57
2023/08/17 02:11:28;;;;;;;3.50;2.85;;;25.60;68.50;26.10;100964.00;;;;5007490;28;20200;-56
2023/08/17 02:13:54;;;;;;;3.20;2.90;;;25.60;68.70;26.10;100955.00;;;;5007911;28;20180;-57
2023/08/17 02:16:19;;;;;;;3.30;3.00;;;25.50;68.70;26.10;100962.00;;;;5008198;28;20176;-57
2023/08/17 02:18:45;;;;;;;3.30;3.00;;;25.50;68.60;26.00;100962.00;;;;5008144;28;20187;-57
2023/08/17 02:21:11;;;;;;;3.53;2.63;;;25.50;68.60;26.00;100960.00;;;;5007783;28;20603;-56
2023/08/17 02:23:37;;;;;;;3.10;2.90;;;25.50;68.60;26.00;100951.00;;;;5007852;28;20207;-57
2023/08/17 02:26:02;;;;;;;4.13;2.90;;;25.50;68.60;26.00;100950.00;;;;5007776;28;20207;-57
2023/08/17 02:28:28;;;;;;;2.85;2.65;;;25.50;68.60;26.00;100956.00;;;;5007784;28;20546;-57
2023/08/17 02:30:58;;;;;;;3.45;3.00;;;25.50;68.70;25.90;100941.00;;;;5007535;28;20715;-57
2023/08/17 02:33:24;;;;;;;3.08;2.50;;;25.40;68.60;25.90;100935.00;;;;5007651;28;20211;-58
2023/08/17 02:35:50;;;;;;;2.70;2.50;;;25.40;68.60;25.90;100939.00;;;;5011352;28;20245;-58
2023/08/17 02:38:16;;;;;;;3.17;2.88;;;25.40;68.80;25.90;100932.00;;;;5011098;28;20180;-56
2023/08/17 02:40:41;;;;;;;3.55;2.72;;;25.30;68.80;25.80;100936.00;;;;5011035;28;20571;-56
2023/08/17 02:43:07;;;;;;;2.60;2.40;;;25.40;69.00;25.80;100934.00;;;;5011957;28;20206;-58
2023/08/17 02:45:34;;;;;;;2.85;2.65;;;25.40;69.00;25.80;100930.00;;;;5011122;28;20199;-56
2023/08/17 02:48:00;;;;;;;2.75;2.55;;;25.30;69.00;25.80;100926.00;;;;5011002;28;20271;-57
2023/08/17 02:50:25;;;;;;;2.92;2.60;;;25.30;69.10;25.80;100920.00;;;;5010899;28;20262;-57
2023/08/17 02:52:51;;;;;;;2.80;2.50;;;25.30;69.00;25.80;100936.00;;;;5011184;28;20207;-57
2023/08/17 02:55:17;;;;;;;2.60;2.40;;;25.30;69.20;25.80;100930.00;;;;5011332;28;20184;-57
2023/08/17 02:57:42;;;;;;;4.85;2.72;;;25.30;69.20;25.80;100922.00;;;;5010855;28;20662;-58
2023/08/17 03:00:09;;;;;;;2.67;2.35;;;25.30;69.20;25.70;100921.00;;;;5010631;28;20188;-56
2023/08/17 03:02:34;;;;;;;3.55;2.70;;;25.30;69.20;25.70;100920.00;;;;5012191;28;20708;-56
2023/08/17 03:05:00;;;;;;;4.28;2.55;;;25.20;69.20;25.70;100933.00;;;;5010734;28;20231;-56
2023/08/17 03:07:26;;;;;;;2.95;2.65;;;25.30;69.20;25.70;100929.00;;;;5012152;28;20183;-57
2023/08/17 03:09:51;;;;;;;2.45;2.25;;;25.30;69.50;25.70;100930.00;;;;5011870;28;20184;-56
2023/08/17 03:12:17;;;;;;;3.20;2.58;;;25.20;69.40;25.70;100924.00;;;;5011726;28;20207;-58
2023/08/17 03:14:43;;;;;;;5.15;2.28;;;25.20;69.40;25.70;100933.00;;;;5012013;28;20577;-58
2023/08/17 03:17:09;;;;;;;2.50;2.30;;;25.20;69.60;25.70;100939.00;;;;5010490;28;20187;-58
2023/08/17 03:19:34;;;;;;;2.95;2.35;;;25.20;69.40;25.70;100933.00;;;;5012351;28;20544;-57
2023/08/17 03:22:00;;;;;;;2.50;2.30;;;25.20;69.40;25.70;100933.00;;;;5011812;28;20207;-57
2023/08/17 03:24:26;;;;;;;2.63;2.42;;;25.20;69.60;25.70;100937.00;;;;5011985;28;20199;-57
2023/08/17 03:26:51;;;;;;;2.30;2.10;;;25.20;69.60;25.70;100941.00;;;;5015043;28;20176;-57
2023/08/17 03:29:17;;;;;;;4.43;2.40;;;25.10;69.60;25.70;100947.00;;;;5012743;28;20187;-57
2023/08/17 03:31:43;;;;;;;2.60;2.20;;;25.20;70.00;25.70;100946.00;;;;5011161;28;20191;-58
2023/08/17 03:34:09;;;;;;;2.50;2.17;;;25.20;70.00;25.60;100945.00;;;;5011591;28;20176;-59
2023/08/17 03:36:34;;;;;;;3.13;2.40;;;25.10;70.10;25.60;100944.00;;;;5011809;28;20533;-56
2023/08/17 03:39:00;;;;;;;2.60;2.40;;;25.10;70.00;25.60;100940.00;;;;5011509;28;20187;-57
2023/08/17 03:41:26;;;;;;;2.75;2.30;;;25.10;70.00;25.60;100940.00;;;;5014089;28;20203;-57
2023/08/17 03:43:51;;;;;;;2.60;2.40;;;25.10;70.10;25.60;100948.00;;;;5014203;28;20168;-57
2023/08/17 03:46:17;;;;;;;2.85;2.20;;;25.10;70.10;25.60;100944.00;;;;5011225;28;20176;-56
2023/08/17 03:48:43;;;;;;;2.60;2.40;;;25.10;70.10;25.60;100946.00;;;;5011255;28;20176;-57
2023/08/17 03:51:08;;;;;;;2.50;2.28;;;25.10;70.10;25.60;100931.00;;;;5010922;28;20658;-59
2023/08/17 03:53:34;;;;;;;3.08;2.20;;;25.10;70.20;25.60;100939.00;;;;5011332;28;20184;-59
2023/08/17 03:56:00;;;;;;;3.05;2.63;;;25.10;70.30;25.50;100944.00;;;;5011182;28;20215;-58
2023/08/17 03:58:26;;;;;;;3.03;2.40;;;25.10;70.40;25.50;100958.00;;;;5010065;28;20653;-58
2023/08/17 04:00:52;;;;;;;2.55;2.35;;;25.00;70.30;25.50;100960.00;;;;5010614;28;20188;-58
2023/08/17 04:03:19;;;;;;;3.35;2.38;;;25.10;70.40;25.50;100963.00;;;;5009717;28;20719;-58
2023/08/17 04:05:45;;;;;;;2.50;2.30;;;25.10;70.40;25.50;100968.00;;;;5007066;28;20210;-57
2023/08/17 04:08:10;;;;;;;4.00;2.50;;;25.10;70.40;25.50;100959.00;;;;5009317;28;20179;-56
2023/08/17 04:10:36;;;;;;;2.90;2.60;;;25.00;70.40;25.50;100965.00;;;;5009797;28;20179;-57
2023/08/17 04:13:02;;;;;;;2.80;2.50;;;25.00;70.60;25.50;100966.00;;;;5010092;28;20838;-57
2023/08/17 04:15:28;;;;;;;2.90;2.60;;;25.00;70.50;25.50;100961.00;;;;5008710;28;20625;-58
2023/08/17 04:17:54;;;;;;;3.97;2.45;;;25.00;70.60;25.40;100966.00;;;;5008798;28;20279;-57
2023/08/17 04:20:20;;;;;;;3.28;2.45;;;25.00;70.50;25.40;100962.00;;;;5009793;28;20258;-57
2023/08/17 04:22:46;;;;;;;2.70;2.50;;;25.00;70.60;25.40;100962.00;;;;5010088;28;20563;-57
2023/08/17 04:25:12;;;;;;;5.05;2.70;;;25.00;71.50;25.40;100962.00;;;;5009788;28;20215;-56
2023/08/17 04:27:38;;;;;;;3.55;2.45;;;24.90;71.20;25.40;100961.00;;;;5009885;28;20234;-56
2023/08/17 04:30:05;;;;;;;3.10;2.60;;;24.90;71.00;25.40;100972.00;;;;5009938;28;20179;-56
2023/08/17 04:32:30;;;;;;;4.78;2.80;;;24.90;70.90;25.40;100985.00;;;;5009546;28;20199;-57
2023/08/17 04:34:56;;;;;;;3.03;2.72;;;24.90;70.90;25.40;100982.00;;;;5009766;28;20261;-56
2023/08/17 04:37:22;;;;;;;3.08;2.88;;;24.90;70.70;25.30;100985.00;;;;5010009;28;20605;-57
2023/08/17 04:39:49;;;;;;;3.42;3.13;;;24.90;70.70;25.30;100986.00;;;;5009238;28;20187;-57
2023/08/17 04:42:14;;;;;;;3.13;2.90;;;25.00;70.80;25.30;100989.00;;;;5008918;28;20235;-57
2023/08/17 04:44:40;;;;;;;3.47;2.75;;;24.90;70.90;25.30;100995.00;;;;5008374;28;20289;-57
2023/08/17 04:47:06;;;;;;;3.47;3.17;;;24.90;70.70;25.30;100987.00;;;;5008351;28;20247;-57
2023/08/17 04:49:31;;;;;;;4.53;3.55;;;24.90;70.90;25.30;100975.00;;;;5005118;28;20857;-57
2023/08/17 04:51:57;;;;;;;3.55;3.15;;;24.90;70.90;25.30;100993.00;;;;5007145;28;20196;-57
2023/08/17 04:54:23;;;;;;;3.40;3.10;;;24.90;70.90;25.30;100987.00;;;;5009407;28;20199;-56
2023/08/17 04:56:49;;;;;;;4.55;3.13;;;24.90;70.70;25.30;100992.00;;;;5009091;28;20180;-57
2023/08/17 04:59:15;;;;;;;3.42;3.13;;;24.90;70.90;25.30;100990.00;;;;5009567;28;20187;-57
2023/08/17 05:01:40;;;;;;;3.42;2.90;;;24.90;70.70;25.30;100996.00;;;;5009146;28;20639;-57
2023/08/17 05:04:06;;;;;;;3.17;2.90;;;24.90;70.80;25.30;101000.00;;;;5009171;28;20191;-57
2023/08/17 05:06:33;;;;;;;3.60;3.00;;;24.80;70.60;25.20;101008.00;;;;5008411;28;20187;-56
2023/08/17 05:08:58;;;;;;;3.17;2.88;;;24.80;70.60;25.20;101000.00;;;;5009709;28;20183;-57
2023/08/17 05:11:24;;;;;;;3.00;2.80;;;24.80;70.60;25.20;101007.00;;;;5009233;28;20254;-56
2023/08/17 05:13:50;;;;;;;3.65;3.35;;;24.80;70.70;25.20;101008.00;;;;5007895;28;20725;-56
2023/08/17 05:16:16;;;;;;;3.95;3.10;;;24.80;70.70;25.20;100998.00;;;;5009189;28;20183;-57
2023/08/17 05:18:41;;;;;;;3.30;3.00;;;24.80;70.70;25.20;101000.00;;;;5009209;28;20195;-56
2023/08/17 05:21:07;;;;;;;4.15;3.03;;;24.80;70.80;25.20;100999.00;;;;5008887;28;20187;-56
2023/08/17 05:23:33;;;;;;;3.85;3.10;;;24.80;70.70;25.20;100999.00;;;;5008884;28;20567;-56
2023/08/17 05:25:59;;;;;;;3.25;2.95;;;24.70;70.60;25.20;100993.00;;;;5009231;28;20211;-57
2023/08/17 05:28:24;;;;;;;3.30;3.00;;;24.80;70.80;25.20;101000.00;;;;5009202;28;20261;-58
2023/08/17 05:30:50;;;;;;;3.30;2.95;;;24.70;70.60;25.20;100937.00;;;;5009868;28;20286;-57
2023/08/17 05:33:16;;;;;;;3.03;2.83;;;24.70;70.70;25.20;101003.00;;;;5012652;28;20219;-58
2023/08/17 05:35:42;;;;;;;3.15;2.92;;;24.70;70.90;25.10;101016.00;;;;5008944;28;20218;-57
2023/08/17 05:38:09;;;;;;;2.90;2.70;;;24.70;70.90;25.10;101021.00;;;;5009402;28;20264;-57
2023/08/17 05:40:35;;;;;;;3.00;2.80;;;24.70;71.00;25.10;101009.00;;;;5009390;28;20599;-58
2023/08/17 05:43:01;;;;;;;3.30;3.00;;;24.70;71.00;25.10;101007.00;;;;5010020;28;20207;-57
2023/08/17 05:45:26;;;;;;;3.20;2.90;;;24.70;71.10;25.10;101014.00;;;;5009392;28;20222;-56
2023/08/17 05:47:52;;;;;;;3.45;3.20;;;24.60;71.20;25.10;101011.00;;;;5011561;28;20306;-56
2023/08/17 05:50:18;;;;;;;3.30;3.00;;;24.70;71.30;25.10;101006.00;;;;5009251;28;20191;-56
2023/08/17 05:52:44;;;;;;;3.30;3.10;;;24.70;71.10;25.10;101015.00;;;;5008922;28;20286;-56
2023/08/17 05:55:10;;;;;;;3.75;3.45;;;24.60;71.10;25.00;101011.00;;;;5007764;28;20522;-56
2023/08/17 05:57:35;;;;;;;3.35;3.08;;;24.60;71.10;25.10;101015.00;;;;5008830;28;20271;-57
2023/08/17 06:00:01;;;;;;;3.42;3.13;;;24.60;71.10;25.00;101012.00;;;;5007598;28;20196;-57
2023/08/17 06:02:28;;;;;;;3.20;2.83;;;24.60;71.10;25.00;101020.00;;;;5007746;28;20218;-57
2023/08/17 06:04:53;;;;;;;3.20;3.00;;;24.60;71.10;25.00;101013.00;;;;5007758;28;20199;-57
2023/08/17 06:07:19;;;;;;;3.45;3.25;;;24.60;71.20;25.00;101016.00;;;;5009015;28;20208;-57
2023/08/17 06:09:45;;;;;;;3.60;3.05;;;24.50;71.20;25.00;101010.00;;;;5011981;28;20180;-57
2023/08/17 06:12:11;;;;;;;3.42;3.10;;;24.50;71.20;25.00;101010.00;;;;5012334;28;20195;-57
2023/08/17 06:14:36;;;;;;;3.33;3.08;;;24.50;71.40;25.00;101006.00;;;;5012260;28;20179;-57
2023/08/17 06:17:02;;;;;;;3.60;3.20;;;24.50;71.50;25.00;101012.00;;;;5012416;28;20184;-57
2023/08/17 06:19:28;;;;;;;3.50;3.20;;;24.50;71.50;25.00;101012.00;;;;5012260;28;20597;-57
2023/08/17 06:21:54;;;;;;;3.33;3.03;;;24.50;71.40;25.00;101011.00;;;;5012036;28;20560;-57
2023/08/17 06:24:19;;;;;;;3.30;3.10;;;24.40;71.30;24.90;101006.00;;;;5011706;28;20234;-58
2023/08/17 06:26:45;;;;;;;4.22;3.83;;;24.50;71.60;25.00;101010.00;;;;5011993;28;20336;-57
2023/08/17 06:29:11;;;;;;;3.30;3.00;;;24.40;71.30;24.90;101005.00;;;;5012137;28;20646;-57
2023/08/17 06:31:37;;;;;;;3.53;3.22;;;24.40;71.30;25.00;101008.00;;;;5011928;28;20203;-57
2023/08/17 06:34:03;;;;;;;3.40;3.10;;;24.40;71.50;25.00;101007.00;;;;5011996;28;20199;-57
2023/08/17 06:36:30;;;;;;;4.10;3.17;;;24.40;71.60;25.00;101012.00;;;;5012413;28;20176;-57
2023/08/17 06:38:56;;;;;;;3.50;3.10;;;24.40;71.70;24.90;101020.00;;;;5012203;28;20183;-57
2023/08/17 06:41:22;;;;;;;4.28;3.70;;;24.40;71.70;24.90;101019.00;;;;5011733;28;20698;-57
2023/08/17 06:43:48;;;;;;;3.70;3.40;;;24.40;71.70;24.90;101015.00;;;;5012724;28;20553;-57
2023/08/17 06:46:13;;;;;;;4.35;3.53;;;24.40;71.50;24.90;101022.00;;;;5011884;28;20219;-57
2023/08/17 06:48:39;;;;;;;3.67;3.38;;;24.40;71.60;24.90;101016.00;;;;5012268;28;20214;-56
2023/08/17 06:51:05;;;;;;;3.92;3.17;;;24.40;71.80;24.90;101022.00;;;;5012402;28;20259;-56
2023/08/17 06:53:31;;;;;;;3.22;3.00;;;24.40;71.90;24.90;101026.00;;;;5011521;28;20200;-59
2023/08/17 06:55:56;;;;;;;3.28;3.08;;;24.40;72.00;24.90;101018.00;;;;5011495;28;20222;-56
2023/08/17 06:58:22;;;;;;;3.70;3.40;;;24.30;72.00;24.90;101015.00;;;;5011871;28;20241;-57
2023/08/17 07:00:48;;;;;;;3.20;3.00;;;24.30;72.00;24.90;101023.00;;;;5011484;28;20189;-56
2023/08/17 07:03:14;;;;;;;3.40;3.20;;;24.30;72.00;24.90;101023.00;;;;5011295;28;20569;-56
2023/08/17 07:05:39;;;;;;;3.75;3.45;;;24.40;72.20;24.90;101025.00;;;;5011310;28;20215;-55
2023/08/17 07:08:06;;;;;;;4.07;3.78;;;24.40;72.00;24.90;101025.00;;;;4994223;28;20180;-56
2023/08/17 07:10:32;;;;;;;4.25;3.85;;;24.40;72.10;24.90;101026.00;;;;5011015;28;20202;-56
2023/08/17 07:13:02;;;;;;;3.80;3.50;;;24.40;71.90;24.90;101010.00;;;;5011216;28;20666;-55
2023/08/17 07:15:28;;;;;;;4.07;3.60;;;24.40;71.90;24.80;101018.00;;;;5006945;28;20196;-55
2023/08/17 07:17:54;;;;;;;3.60;3.30;;;24.40;71.90;24.80;101021.00;;;;5011076;28;20662;-57
2023/08/17 07:20:19;;;;;;;3.78;3.47;;;24.40;72.00;24.80;101018.00;;;;5010754;28;20186;-56
2023/08/17 07:22:45;;;;;;;3.70;3.40;;;24.40;72.00;24.80;101020.00;;;;5011457;28;20234;-56
2023/08/17 07:25:11;;;;;;;3.65;3.40;;;24.30;71.90;24.80;101019.00;;;;5010620;28;20265;-56
2023/08/17 07:27:37;;;;;;;3.80;3.50;;;24.30;72.00;24.80;101023.00;;;;5011516;28;20183;-55
2023/08/17 07:30:03;;;;;;;3.47;3.17;;;24.30;72.00;24.80;101033.00;;;;5011169;28;20646;-55
2023/08/17 07:32:28;;;;;;;3.65;3.40;;;24.30;72.00;24.80;100980.00;;;;5011394;28;20291;-59
2023/08/17 07:34:54;;;;;;;4.28;3.40;;;24.30;72.10;24.80;101041.00;;;;5011136;28;20271;-56
2023/08/17 07:37:20;;;;;;;3.42;3.20;;;24.30;72.00;24.80;101044.00;;;;5014336;28;20190;-56
2023/08/17 07:39:46;;;;;;;3.78;3.47;;;24.30;72.10;24.80;101035.00;;;;5009717;28;20190;-56
2023/08/17 07:42:11;;;;;;;3.70;3.40;;;24.20;72.20;24.80;101043.00;;;;4993466;28;21847;-56
2023/08/17 07:44:39;;;;;;;3.60;3.30;;;24.30;72.30;24.80;101049.00;;;;5010741;28;20697;-57
2023/08/17 07:47:05;;;;;;;3.25;3.00;;;24.20;72.30;24.80;101052.00;;;;5011091;28;20184;-56
2023/08/17 07:49:31;;;;;;;3.50;3.30;;;24.20;73.30;24.80;101048.00;;;;5010943;28;20308;-56
2023/08/17 07:51:57;;;;;;;3.40;3.10;;;24.30;72.50;24.80;101051.00;;;;5013467;28;20203;-56
2023/08/17 07:54:22;;;;;;;3.75;3.45;;;24.20;72.30;24.80;101046.00;;;;5007976;28;20179;-55
2023/08/17 07:56:48;;;;;;;3.80;3.40;;;24.30;72.50;24.80;101052.00;;;;5009850;28;20267;-55
2023/08/17 07:59:14;;;;;;;4.82;3.38;;;24.20;72.30;24.80;101055.00;;;;5009447;28;20579;-55
2023/08/17 08:01:40;;;;;;;3.97;2.97;;;24.20;72.70;24.80;101058.00;;;;5010241;28;20216;-55
2023/08/17 08:04:06;;;;;;;3.70;3.40;;;24.20;72.70;24.80;101061.00;;;;5009961;28;20180;-57
2023/08/17 08:06:32;;;;;;;3.78;3.47;;;24.20;72.80;24.80;101054.00;;;;5010769;28;20543;-55
2023/08/17 08:08:58;;;;;;;3.45;3.20;;;24.20;72.70;24.80;101051.00;;;;5009685;28;20176;-56
2023/08/17 08:11:24;;;;;;;3.35;3.05;;;24.20;72.70;24.80;101059.00;;;;5010143;28;20258;-57
2023/08/17 08:13:50;;;;;;;3.35;3.08;;;24.20;73.10;24.60;101051.00;;;;5010469;28;20183;-58
2023/08/17 08:16:16;;;;;;;4.53;3.20;;;24.20;73.30;24.90;101055.00;;;;5010136;28;20183;-57
2023/08/17 08:18:41;;;;;;;3.20;2.90;;;24.20;73.40;24.90;101065.00;;;;5010077;28;20609;-57
2023/08/17 08:21:07;;;;;;;3.30;3.10;;;24.30;73.30;24.90;101008.00;;;;5010201;28;20190;-57
2023/08/17 08:23:33;;;;;;;3.38;3.13;;;24.30;73.30;24.90;101068.00;;;;5009850;28;20254;-58
2023/08/17 08:25:59;;;;;;;3.35;3.05;;;24.20;73.50;24.90;101067.00;;;;5009688;28;20234;-57
2023/08/17 08:28:25;;;;;;;3.10;2.90;;;24.20;73.80;24.90;101064.00;;;;5009275;28;20183;-57
2023/08/17 08:30:52;;;;;;;4.57;3.60;;;24.30;73.50;24.90;101061.00;;;;5006614;28;20172;-56
2023/08/17 08:33:18;;;;;;;3.60;3.30;;;24.20;73.70;24.90;101057.00;;;;5009856;28;20208;-56
2023/08/17 08:35:43;;;;;;;6.68;3.20;;;24.30;74.70;24.90;101059.00;;;;5009659;28;20179;-53
2023/08/17 08:38:10;;;;;;;4.75;3.38;;;24.30;73.70;24.90;101050.00;;;;5009780;28;20183;-57
2023/08/17 08:40:35;;;;;;;3.15;2.90;;;24.20;73.80;24.90;101049.00;;;;5010215;28;20191;-57
2023/08/17 08:43:01;;;;;;;3.13;2.83;;;24.30;73.60;24.90;101061.00;;;;4977416;28;20553;-55
2023/08/17 08:45:27;;;;;;;3.03;2.83;;;24.30;73.90;24.90;101054.00;;;;5007788;28;20235;-56
2023/08/17 08:47:53;;;;;;;3.15;2.90;;;24.40;73.50;25.00;101049.00;;;;5007907;28;20199;-56
2023/08/17 08:50:21;;;;;;;3.47;3.17;;;24.30;73.50;24.90;101045.00;;;;4991646;28;20175;-56
2023/08/17 08:53:01;;;;;;;4.40;3.20;;;24.30;73.90;24.90;101052.00;;;;5005402;28;20226;-56
2023/08/17 08:55:30;;;;;;;3.47;3.17;;;24.30;74.00;24.90;101045.00;;;;5007745;28;20187;-57
2023/08/17 08:57:56;;;;;;;3.20;3.00;;;24.30;73.90;24.90;101047.00;;;;5008110;28;20548;-58
2023/08/17 09:00:22;;;;;;;5.57;3.42;;;24.30;73.90;24.90;101047.00;;;;5009116;28;20563;-57
2023/08/17 09:02:49;;;;;;;3.55;3.08;;;24.40;74.00;24.90;101044.00;;;;5009710;28;20199;-57
2023/08/17 09:05:14;;;;;;;3.58;3.28;;;24.40;74.10;24.90;101039.00;;;;5008367;28;20294;-57
2023/08/17 09:07:40;;;;;;;4.85;3.20;;;24.40;74.80;24.90;101035.00;;;;5008119;28;20599;-57
2023/08/17 09:10:06;;;;;;;3.25;2.97;;;24.40;74.00;24.90;101029.00;;;;4991949;28;20277;-57
2023/08/17 09:12:32;;;;;;;3.50;3.20;;;24.30;73.80;24.90;101037.00;;;;5007889;28;20195;-57
2023/08/17 09:14:58;;;;;;;4.47;3.40;;;24.30;73.90;24.90;101037.00;;;;5010435;28;20735;-56
2023/08/17 09:17:25;;;;;;;3.50;3.20;;;24.30;73.90;24.90;101048.00;;;;4991651;28;20222;-56
2023/08/17 09:19:50;;;;;;;4.15;3.78;;;24.30;74.00;24.90;101046.00;;;;5010937;28;20187;-57
2023/08/17 09:22:40;;;;;;;4.22;3.78;;;24.30;73.90;24.90;101031.00;;;;5015142;28;20203;-56
2023/08/17 09:25:06;;;;;;;4.10;3.80;;;24.30;74.00;24.90;101026.00;;;;5015927;28;20207;-56
2023/08/17 09:27:32;;;;;;;4.30;3.85;;;24.30;74.00;24.90;101038.00;;;;5008754;28;20190;-56
2023/08/17 09:30:09;;;;;;;4.00;3.70;;;24.20;73.80;24.90;101035.00;;;;5007830;28;20180;-56
2023/08/17 09:32:34;;;;;;;4.35;3.95;;;24.30;74.10;24.90;101035.00;;;;5008489;28;20629;-56
2023/08/17 09:35:07;;;;;;;4.13;3.72;;;24.30;74.00;24.90;101023.00;;;;5008453;28;20214;-55
2023/08/17 09:37:33;;;;;;;4.30;3.90;;;24.20;74.10;24.90;101028.00;;;;5008224;28;20403;-56
2023/08/17 09:39:59;;;;;;;4.50;3.90;;;24.30;74.40;24.90;101035.00;;;;5008043;28;20187;-56
2023/08/17 09:42:27;;;;;;;4.10;3.70;;;24.30;74.10;25.00;101030.00;;;;5008919;28;20219;-55
2023/08/17 09:44:53;;;;;;;4.25;3.95;;;24.40;74.10;25.00;101032.00;;;;5015699;28;20289;-55
2023/08/17 09:47:21;;;;;;;6.32;4.50;;;24.30;74.00;25.00;101026.00;;;;5013549;28;20263;-57
2023/08/17 09:49:54;;;;;;;4.63;4.20;;;24.30;74.00;25.00;101028.00;;;;5011743;28;20612;-56
2023/08/17 09:52:21;;;;;;;5.07;4.43;;;24.20;74.40;25.00;101027.00;;;;5013339;28;20283;-57
2023/08/17 09:54:47;;;;;;;4.80;4.30;;;24.20;74.30;25.00;101021.00;;;;5013531;28;20187;-56
2023/08/17 09:57:13;;;;;;;4.80;4.40;;;24.30;74.50;25.00;101019.00;;;;5014676;28;20198;-55
2023/08/17 09:59:40;;;;;;;5.10;4.65;;;24.20;74.30;25.00;101015.00;;;;5015894;28;20561;-56
2023/08/17 10:02:19;;;;;;;4.80;4.40;;;24.30;74.80;25.00;101017.00;;;;5012943;28;20195;-56
2023/08/17 10:04:50;;;;;;;5.13;4.63;;;24.30;74.60;25.00;101021.00;;;;5011864;28;20265;-56
2023/08/17 10:07:16;;;;;;;5.07;4.43;;;24.30;74.70;25.00;101008.00;;;;5013363;28;20184;-58
2023/08/17 10:09:43;;;;;;;5.40;4.90;;;24.20;74.70;24.90;101016.00;;;;4995617;28;20182;-58
2023/08/17 10:12:15;;;;;;;5.15;4.65;;;24.20;75.00;24.90;101021.00;;;;5011722;28;20207;-55
2023/08/17 10:14:47;;;;;;;5.18;4.68;;;24.20;75.00;24.90;101025.00;;;;4979835;28;20689;-57
2023/08/17 10:17:15;;;;;;;5.40;4.90;;;24.20;74.90;24.90;101017.00;;;;5012753;28;20238;-57
2023/08/17 10:19:51;;;;;;;5.53;5.03;;;24.20;75.00;24.90;101027.00;;;;4979740;28;20191;-58
2023/08/17 10:22:42;;;;;;;4.85;4.45;;;24.30;74.90;25.00;101017.00;;;;4996242;28;20294;-57
2023/08/17 10:25:08;;;;;;;4.80;4.40;;;24.30;74.90;25.00;101018.00;;;;5008392;28;20208;-57
2023/08/17 10:27:35;;;;;;;5.55;4.70;;;24.30;74.90;25.00;101014.00;;;;4994593;28;20183;-55
2023/08/17 10:30:01;;;;;;;4.93;4.43;;;24.30;74.70;25.00;101019.00;;;;4994462;28;20203;-56
2023/08/17 10:32:27;;;;;;;5.05;4.55;;;24.40;75.00;25.00;101013.00;;;;5010942;28;20298;-56
2023/08/17 10:34:53;;;;;;;4.90;4.50;;;24.40;74.90;25.00;101016.00;;;;4994587;28;20183;-56
2023/08/17 10:37:19;;;;;;;4.97;4.53;;;24.40;75.40;25.00;101024.00;;;;4978594;28;20669;-57
2023/08/17 10:39:46;;;;;;;6.95;4.78;;;24.40;75.30;25.10;101022.00;;;;4978307;28;20187;-56
2023/08/17 10:42:13;;;;;;;5.45;4.63;;;24.40;75.50;25.10;101027.00;;;;5011851;28;20653;-57
2023/08/17 10:44:47;;;;;;;4.95;4.55;;;24.40;75.60;25.10;101027.00;;;;5012396;28;20231;-57